Time;durP1;ratioP1;P1;durP2;ratioP2;P2;SDS_P1;SDS_P2;PMS_P1;PMS_P2;Temp;Humidity;BMP_temperature;BMP_pressure;BME280_temperature;BME280_humidity;BME280_pressure;Samples;Min_cycle;Max_cycle;Signal;HPM_P1;HPM_P2
2024/03/30 00:00:48;;;;;;;0.00;0.00;;;;;;;;;;6319950;22;20025;-92
2024/03/30 00:03:14;;;;;;;0.00;0.00;;;;;;;;;;6322047;22;20047;-92
2024/03/30 00:05:40;;;;;;;0.00;0.00;;;;;;;;;;6324297;22;20021;-94
2024/03/30 00:08:07;;;;;;;0.00;0.00;;;11.50;99.90;;;;;;6321837;22;20004;-93
2024/03/30 00:10:36;;;;;;;0.00;0.00;;;11.40;99.90;;;;;;6319299;22;20332;-93
2024/03/30 00:13:02;;;;;;;0.00;0.00;;;;;;;;;;6320607;22;20004;-93
2024/03/30 00:15:28;;;;;;;0.00;0.00;;;;;;;;;;6319593;22;20059;-93
2024/03/30 00:17:54;;;;;;;0.00;0.00;;;;;;;;;;6319681;22;20011;-93
2024/03/30 00:20:23;;;;;;;0.00;0.00;;;;;;;;;;6320368;22;19996;-93
2024/03/30 00:22:53;;;;;;;0.00;0.00;;;11.50;99.90;;;;;;6322972;22;20000;-93
2024/03/30 00:25:19;;;;;;;0.00;0.00;;;;;;;;;;6320895;22;19999;-92
2024/03/30 00:27:45;;;;;;;0.00;0.00;;;;;;;;;;6324703;22;20085;-93
2024/03/30 00:30:11;;;;;;;0.00;0.00;;;;;;;;;;6322770;22;20007;-92
2024/03/30 00:32:37;;;;;;;0.00;0.00;;;;;;;;;;6322692;22;19984;-91
2024/03/30 00:35:04;;;;;;;0.00;0.00;;;;;;;;;;6320621;22;20011;-93
2024/03/30 00:37:30;;;;;;;0.00;0.00;;;;;;;;;;6323327;22;20061;-94
2024/03/30 00:39:56;;;;;;;0.00;0.00;;;;;;;;;;6320564;22;20007;-93
2024/03/30 00:42:22;;;;;;;0.00;0.00;;;;;;;;;;6324988;22;19999;-93
2024/03/30 00:44:48;;;;;;;0.00;0.00;;;;;;;;;;6321409;22;20049;-93
2024/03/30 00:47:14;;;;;;;0.00;0.00;;;;;;;;;;6321919;22;20031;-92
2024/03/30 00:49:39;;;;;;;0.00;0.00;;;;;;;;;;6320455;22;20086;-93
2024/03/30 00:52:05;;;;;;;0.00;0.00;;;;;;;;;;6320919;22;19996;-93
2024/03/30 00:54:32;;;;;;;0.00;0.00;;;;;;;;;;6320017;22;20067;-93
2024/03/30 00:56:58;;;;;;;0.00;0.00;;;;;;;;;;6319071;22;20004;-93
2024/03/30 00:59:23;;;;;;;0.00;0.00;;;;;;;;;;6319602;22;20008;-93
2024/03/30 01:01:49;;;;;;;0.00;0.00;;;;;;;;;;6317831;22;20026;-93
2024/03/30 01:04:15;;;;;;;0.00;0.00;;;;;;;;;;6318823;22;19999;-91
2024/03/30 01:06:43;;;;;;;0.00;0.00;;;;;;;;;;6319734;22;20023;-93
2024/03/30 01:09:09;;;;;;;0.00;0.00;;;;;;;;;;6318358;22;20000;-91
2024/03/30 01:11:35;;;;;;;0.00;0.00;;;;;;;;;;6317286;22;20015;-93
2024/03/30 01:14:01;;;;;;;0.00;0.00;;;;;;;;;;6317305;22;20340;-93
2024/03/30 01:16:27;;;;;;;0.00;0.00;;;;;;;;;;6316128;22;20050;-92
2024/03/30 01:18:53;;;;;;;0.00;0.00;;;;;;;;;;6317259;22;20008;-92
2024/03/30 01:21:19;;;;;;;0.00;0.00;;;;;;;;;;6317442;22;20501;-93
2024/03/30 01:23:45;;;;;;;0.00;0.00;;;10.90;99.90;;;;;;6317821;22;20030;-94
2024/03/30 01:26:12;;;;;;;0.00;0.00;;;10.80;99.90;;;;;;6316921;22;20055;-93
2024/03/30 01:28:42;;;;;;;0.00;0.00;;;10.80;99.90;;;;;;6317861;22;20004;-93
2024/03/30 01:31:08;;;;;;;0.00;0.00;;;10.80;99.90;;;;;;6318493;22;20005;-93
2024/03/30 01:33:34;;;;;;;0.00;0.00;;;10.80;99.90;;;;;;6316602;22;20095;-92
2024/03/30 01:36:00;;;;;;;0.00;0.00;;;;;;;;;;6316335;22;20170;-92
2024/03/30 01:38:25;;;;;;;0.00;0.00;;;;;;;;;;6316847;22;20019;-92
2024/03/30 01:40:51;;;;;;;0.00;0.00;;;;;;;;;;6319146;22;20000;-93
2024/03/30 01:43:17;;;;;;;0.00;0.00;;;;;;;;;;6322898;22;20063;-92
2024/03/30 01:45:44;;;;;;;0.00;0.00;;;10.80;99.90;;;;;;6324253;22;20023;-93
2024/03/30 01:48:11;;;;;;;0.00;0.00;;;10.70;99.90;;;;;;6325074;22;20010;-93
2024/03/30 01:50:39;;;;;;;0.00;0.00;;;10.70;99.90;;;;;;6317796;22;20007;-94
2024/03/30 01:53:06;;;;;;;0.00;0.00;;;10.70;99.90;;;;;;6317396;22;20010;-93
2024/03/30 01:55:32;;;;;;;0.00;0.00;;;;;;;;;;6318111;22;20050;-92
2024/03/30 01:58:02;;;;;;;0.00;0.00;;;10.70;99.90;;;;;;6319278;22;20007;-92
2024/03/30 02:00:28;;;;;;;;;;;10.70;99.90;;;;;;6318686;22;20050;-92
2024/03/30 02:02:54;;;;;;;0.00;0.00;;;;;;;;;;6292441;22;19945;-92
2024/03/30 02:05:20;;;;;;;0.00;0.00;;;;;;;;;;6317253;22;20019;-93
2024/03/30 02:07:47;;;;;;;0.00;0.00;;;;;;;;;;6319678;22;20000;-93
2024/03/30 02:10:13;;;;;;;0.00;0.00;;;;;;;;;;6319282;22;20436;-92
2024/03/30 02:12:42;;;;;;;0.00;0.00;;;10.60;99.90;;;;;;6317994;22;20004;-92
2024/03/30 02:15:09;;;;;;;0.00;0.00;;;;;;;;;;6318588;22;20003;-92
2024/03/30 02:17:35;;;;;;;0.00;0.00;;;;;;;;;;6318830;22;20008;-92
2024/03/30 02:20:02;;;;;;;0.00;0.00;;;;;;;;;;6316757;22;20008;-92
2024/03/30 02:22:28;;;;;;;0.00;0.00;;;;;;;;;;6317696;22;20000;-91
2024/03/30 02:24:54;;;;;;;0.00;0.00;;;;;;;;;;6318421;22;20003;-92
2024/03/30 02:27:20;;;;;;;0.00;0.00;;;;;;;;;;6319269;22;20007;-92
2024/03/30 02:29:51;;;;;;;0.00;0.00;;;10.50;99.90;;;;;;6320672;22;20110;-94
2024/03/30 02:32:17;;;;;;;0.00;0.00;;;;;;;;;;6328633;22;19996;-93
2024/03/30 02:34:43;;;;;;;0.00;0.00;;;;;;;;;;6329414;22;20002;-93
2024/03/30 02:37:09;;;;;;;0.00;0.00;;;;;;;;;;6322654;22;20488;-93
2024/03/30 02:39:35;;;;;;;0.00;0.00;;;;;;;;;;6317814;22;20056;-93
2024/03/30 02:42:01;;;;;;;0.00;0.00;;;;;;;;;;6316762;22;20003;-91
2024/03/30 02:44:27;;;;;;;0.00;0.00;;;;;;;;;;6316202;22;20505;-93
2024/03/30 02:46:53;;;;;;;0.00;0.00;;;;;;;;;;6317471;22;20007;-92
2024/03/30 02:49:19;;;;;;;0.00;0.00;;;;;;;;;;6320435;22;20068;-91
2024/03/30 02:51:45;;;;;;;0.00;0.00;;;;;;;;;;6317002;22;20000;-93
2024/03/30 02:54:12;;;;;;;0.00;0.00;;;;;;;;;;6317265;22;20003;-93
2024/03/30 02:56:38;;;;;;;0.00;0.00;;;;;;;;;;6315575;22;20007;-92
2024/03/30 02:59:04;;;;;;;0.00;0.00;;;;;;;;;;6315906;22;20004;-92
2024/03/30 03:01:30;;;;;;;0.00;0.00;;;;;;;;;;6314613;22;20011;-93
2024/03/30 03:03:56;;;;;;;0.00;0.00;;;;;;;;;;6316741;22;20085;-93
2024/03/30 03:06:22;;;;;;;0.00;0.00;;;;;;;;;;6316821;22;20015;-93
2024/03/30 03:08:48;;;;;;;0.00;0.00;;;;;;;;;;6316787;22;20007;-92
2024/03/30 03:11:13;;;;;;;0.00;0.00;;;;;;;;;;6315719;22;20011;-93
2024/03/30 03:13:39;;;;;;;0.00;0.00;;;;;;;;;;6316576;22;20060;-92
2024/03/30 03:16:05;;;;;;;0.00;0.00;;;;;;;;;;6316051;22;19998;-91
2024/03/30 03:18:31;;;;;;;0.00;0.00;;;;;;;;;;6317162;22;20003;-86
2024/03/30 03:20:58;;;;;;;0.00;0.00;;;;;;;;;;6304369;22;19988;-87
2024/03/30 03:23:25;;;;;;;0.00;0.00;;;;;;;;;;6305123;22;20256;-85
2024/03/30 03:25:51;;;;;;;0.00;0.00;;;;;;;;;;6304724;22;19991;-87
2024/03/30 03:28:17;;;;;;;0.00;0.00;;;;;;;;;;6303871;22;19999;-86
2024/03/30 03:30:43;;;;;;;0.00;0.00;;;;;;;;;;6302740;22;20056;-86
2024/03/30 03:33:09;;;;;;;0.00;0.00;;;;;;;;;;6303574;22;20026;-86
2024/03/30 03:35:35;;;;;;;0.00;0.00;;;;;;;;;;6302763;22;19988;-87
2024/03/30 03:38:01;;;;;;;0.00;0.00;;;;;;;;;;6303312;22;20011;-87
2024/03/30 03:40:27;;;;;;;0.00;0.00;;;;;;;;;;6302871;22;20019;-86
2024/03/30 03:42:53;;;;;;;0.00;0.00;;;;;;;;;;6302617;22;19987;-88
2024/03/30 03:45:18;;;;;;;0.00;0.00;;;;;;;;;;6303081;22;19991;-88
2024/03/30 03:47:44;;;;;;;0.00;0.00;;;10.90;99.90;;;;;;6302935;22;20047;-86
2024/03/30 03:50:10;;;;;;;0.00;0.00;;;;;;;;;;6302999;22;19996;-86
2024/03/30 03:52:36;;;;;;;0.00;0.00;;;;;;;;;;6303632;22;19991;-86
2024/03/30 03:55:02;;;;;;;0.00;0.00;;;;;;;;;;6302605;22;19992;-87
2024/03/30 03:57:28;;;;;;;0.00;0.00;;;;;;;;;;6303372;22;20054;-85
2024/03/30 03:59:54;;;;;;;0.00;0.00;;;10.60;99.90;;;;;;6300378;22;20027;-86
2024/03/30 04:02:20;;;;;;;0.05;0.05;;;;;;;;;;6302899;22;20320;-87
2024/03/30 04:04:46;;;;;;;0.00;0.00;;;;;;;;;;6302272;22;20065;-86
2024/03/30 04:07:12;;;;;;;0.00;0.00;;;;;;;;;;6302695;22;19992;-86
2024/03/30 04:09:38;;;;;;;0.00;0.00;;;;;;;;;;6302759;22;19995;-86
2024/03/30 04:12:04;;;;;;;0.00;0.00;;;;;;;;;;6302875;22;20002;-85
2024/03/30 04:14:30;;;;;;;0.00;0.00;;;;;;;;;;6302890;22;20017;-84
2024/03/30 04:16:56;;;;;;;0.00;0.00;;;;;;;;;;6302951;22;20011;-87
2024/03/30 04:19:22;;;;;;;0.00;0.00;;;;;;;;;;6302518;22;20027;-86
2024/03/30 04:21:51;;;;;;;0.00;0.00;;;;;;;;;;6302637;22;19996;-83
2024/03/30 04:24:17;;;;;;;0.00;0.00;;;;;;;;;;6302715;22;20000;-87
2024/03/30 04:26:43;;;;;;;0.00;0.00;;;;;;;;;;6302644;22;20043;-86
2024/03/30 04:29:09;;;;;;;0.00;0.00;;;10.60;99.90;;;;;;6302660;22;19988;-86
2024/03/30 04:31:35;;;;;;;0.00;0.00;;;;;;;;;;6301863;22;19992;-88
2024/03/30 04:34:02;;;;;;;0.00;0.00;;;;;;;;;;6302493;22;20010;-86
2024/03/30 04:36:28;;;;;;;0.00;0.00;;;;;;;;;;6303035;22;20002;-85
2024/03/30 04:38:54;;;;;;;0.00;0.00;;;;;;;;;;6302226;22;20004;-86
2024/03/30 04:41:20;;;;;;;0.00;0.00;;;;;;;;;;6302244;22;19998;-87
2024/03/30 04:43:46;;;;;;;0.00;0.00;;;;;;;;;;6302332;22;19999;-85
2024/03/30 04:46:12;;;;;;;0.00;0.00;;;;;;;;;;6302739;22;20006;-86
2024/03/30 04:48:38;;;;;;;0.00;0.00;;;;;;;;;;6302306;22;19992;-88
2024/03/30 04:51:04;;;;;;;0.00;0.00;;;;;;;;;;6302318;22;19999;-86
2024/03/30 04:53:33;;;;;;;0.00;0.00;;;10.00;99.90;;;;;;6302594;22;19996;-84
2024/03/30 04:56:01;;;;;;;0.10;0.10;;;9.90;99.90;;;;;;6302779;22;20096;-86
2024/03/30 04:58:28;;;;;;;0.00;0.00;;;9.90;99.90;;;;;;6302530;22;20067;-87
2024/03/30 05:00:59;;;;;;;0.00;0.00;;;10.00;99.90;;;;;;6302541;22;19987;-85
2024/03/30 05:03:25;;;;;;;0.00;0.00;;;;;;;;;;6302409;22;20008;-87
2024/03/30 05:05:51;;;;;;;0.00;0.00;;;;;;;;;;6302131;22;20231;-87
2024/03/30 05:08:17;;;;;;;0.00;0.00;;;;;;;;;;6302630;22;19992;-88
2024/03/30 05:10:43;;;;;;;0.00;0.00;;;9.80;99.90;;;;;;6301362;22;19992;-85
2024/03/30 05:13:09;;;;;;;0.00;0.00;;;;;;;;;;6301211;22;20000;-86
2024/03/30 05:15:39;;;;;;;0.00;0.00;;;9.80;99.90;;;;;;6301961;22;19999;-86
2024/03/30 05:18:05;;;;;;;0.00;0.00;;;;;;;;;;6301360;22;20012;-86
2024/03/30 05:20:50;;;;;;;0.03;0.03;;;;;;;;;;6303445;22;20031;-86
2024/03/30 05:23:17;;;;;;;0.00;0.00;;;9.70;99.90;;;;;;6304813;22;20007;-86
2024/03/30 05:25:43;;;;;;;0.00;0.00;;;;;;;;;;6304620;22;19988;-85
2024/03/30 05:28:10;;;;;;;0.00;0.00;;;;;;;;;;6304624;22;20059;-86
2024/03/30 05:30:36;;;;;;;0.00;0.00;;;;;;;;;;6304186;22;20032;-86
2024/03/30 05:33:02;;;;;;;0.00;0.00;;;;;;;;;;6304164;22;20011;-86
2024/03/30 05:35:28;;;;;;;0.00;0.00;;;;;;;;;;6304130;22;20000;-87
2024/03/30 05:37:54;;;;;;;0.00;0.00;;;;;;;;;;6303986;22;19992;-85
2024/03/30 05:40:20;;;;;;;0.00;0.00;;;;;;;;;;6303818;22;20069;-86
2024/03/30 05:42:46;;;;;;;0.00;0.00;;;;;;;;;;6304150;22;19984;-86
2024/03/30 05:45:12;;;;;;;0.00;0.00;;;;;;;;;;6304393;22;20027;-85
2024/03/30 05:47:38;;;;;;;0.00;0.00;;;;;;;;;;6304020;22;19988;-86
2024/03/30 05:50:04;;;;;;;0.00;0.00;;;;;;;;;;6302671;22;19996;-86
2024/03/30 05:52:30;;;;;;;0.10;0.10;;;;;;;;;;6303529;22;20007;-86
2024/03/30 05:54:56;;;;;;;0.00;0.00;;;;;;;;;;6304058;22;19996;-85
2024/03/30 05:57:22;;;;;;;0.00;0.00;;;;;;;;;;6304336;22;19992;-85
2024/03/30 05:59:48;;;;;;;0.00;0.00;;;;;;;;;;6304284;22;20008;-86
2024/03/30 06:02:14;;;;;;;0.00;0.00;;;;;;;;;;6303884;22;19999;-87
2024/03/30 06:04:40;;;;;;;0.00;0.00;;;;;;;;;;6304349;22;20012;-85
2024/03/30 06:07:08;;;;;;;0.00;0.00;;;;;;;;;;6304241;22;19999;-87
2024/03/30 06:09:37;;;;;;;0.08;0.08;;;10.30;99.90;;;;;;6304357;22;20018;-87
2024/03/30 06:12:03;;;;;;;0.00;0.00;;;;;;;;;;6302436;22;19992;-86
2024/03/30 06:14:33;;;;;;;0.00;0.00;;;10.50;99.90;;;;;;6304272;22;19995;-87
2024/03/30 06:16:59;;;;;;;0.00;0.00;;;;;;;;;;6303937;22;20033;-86
2024/03/30 06:19:25;;;;;;;0.00;0.00;;;;;;;;;;6303427;22;20008;-86
2024/03/30 06:21:52;;;;;;;0.00;0.00;;;10.80;99.90;;;;;;6303718;22;20027;-87
2024/03/30 06:24:18;;;;;;;0.00;0.00;;;;;;;;;;6303709;22;20056;-87
2024/03/30 06:26:44;;;;;;;0.00;0.00;;;;;;;;;;6303849;22;20000;-86
2024/03/30 06:29:10;;;;;;;0.00;0.00;;;;;;;;;;6304217;22;19991;-86
2024/03/30 06:31:36;;;;;;;0.00;0.00;;;;;;;;;;6303660;22;20047;-85
2024/03/30 06:34:05;;;;;;;0.00;0.00;;;11.50;99.90;;;;;;6302468;22;19992;-86
2024/03/30 06:36:34;;;;;;;0.00;0.00;;;11.60;99.90;;;;;;6302803;22;20007;-86
2024/03/30 06:39:00;;;;;;;0.00;0.00;;;;;;;;;;6302723;22;20003;-85
2024/03/30 06:44:11;;;;;;;0.00;0.00;;;;;;;;;;6302801;22;20081;-87
2024/03/30 06:46:38;;;;;;;0.00;0.00;;;;;;;;;;6302893;22;19995;-87
2024/03/30 06:49:04;;;;;;;0.00;0.00;;;;;;;;;;6302428;22;20043;-87
2024/03/30 06:51:30;;;;;;;0.00;0.00;;;;;;;;;;6302483;22;20002;-85
2024/03/30 06:53:56;;;;;;;0.00;0.00;;;;;;;;;;6302506;22;20029;-86
2024/03/30 06:56:22;;;;;;;0.00;0.00;;;12.30;99.90;;;;;;6303057;22;20043;-86
2024/03/30 06:58:48;;;;;;;0.00;0.00;;;;;;;;;;6302118;22;20034;-85
2024/03/30 07:01:14;;;;;;;0.00;0.00;;;;;;;;;;6302157;22;20011;-85
2024/03/30 07:03:40;;;;;;;0.00;0.00;;;;;;;;;;6302844;22;20000;-86
2024/03/30 07:06:07;;;;;;;0.00;0.00;;;;;;;;;;6301477;22;20002;-85
2024/03/30 07:08:33;;;;;;;0.00;0.00;;;;;;;;;;6301308;22;20018;-87
2024/03/30 07:10:58;;;;;;;0.00;0.00;;;;;;;;;;6302595;22;19996;-87
2024/03/30 07:13:24;;;;;;;0.00;0.00;;;;;;;;;;6303485;22;19996;-85
2024/03/30 07:15:50;;;;;;;0.00;0.00;;;;;;;;;;6303422;22;20011;-86
2024/03/30 07:18:18;;;;;;;0.00;0.00;;;12.90;99.90;;;;;;6303442;22;19988;-85
2024/03/30 07:20:44;;;;;;;0.00;0.00;;;;;;;;;;6303730;22;19999;-86
2024/03/30 07:23:09;;;;;;;0.00;0.00;;;;;;;;;;6303792;22;20008;-85
2024/03/30 07:25:39;;;;;;;0.00;0.00;;;13.10;99.90;;;;;;6303444;22;20006;-85
2024/03/30 07:28:07;;;;;;;0.00;0.00;;;13.30;99.90;;;;;;6303431;22;19992;-87
2024/03/30 07:30:37;;;;;;;0.00;0.00;;;13.50;99.90;;;;;;6302484;22;20014;-85
2024/03/30 07:33:05;;;;;;;;;;;13.20;99.90;;;;;;6301819;22;20003;-86
2024/03/30 17:01:27;;;;;;;0.00;0.00;;;;;;;;;;6314509;22;20027;-92
2024/03/30 17:03:53;;;;;;;0.00;0.00;;;;;;;;;;6289971;22;20011;-92
2024/03/30 17:06:19;;;;;;;0.00;0.00;;;;;;;;;;6289716;22;20506;-91
2024/03/30 17:08:45;;;;;;;0.00;0.00;;;;;;;;;;6258407;22;20047;-91
2024/03/30 17:11:11;;;;;;;0.00;0.00;;;;;;;;;;6258958;22;20007;-92
2024/03/30 17:13:37;;;;;;;0.00;0.00;;;;;;;;;;6260228;22;20007;-90
2024/03/30 18:34:05;;;;;;;0.00;0.00;;;;;;;;;;6290438;22;20015;-92
2024/03/30 18:36:31;;;;;;;0.00;0.00;;;;;;;;;;6286141;22;20028;-90
2024/03/30 18:38:57;;;;;;;0.00;0.00;;;;;;;;;;6288770;22;20008;-91
2024/03/30 18:41:23;;;;;;;0.00;0.00;;;;;;;;;;6289260;22;20000;-90
2024/03/30 18:43:49;;;;;;;0.00;0.00;;;;;;;;;;6289805;22;20317;-90
2024/03/30 18:46:15;;;;;;;0.00;0.00;;;;;;;;;;6288807;22;20416;-90
2024/03/30 18:48:41;;;;;;;0.00;0.00;;;;;;;;;;6289191;22;20011;-90
2024/03/30 18:51:08;;;;;;;0.00;0.00;;;14.20;99.90;;;;;;6289222;22;20011;-91
2024/03/30 18:53:34;;;;;;;0.00;0.00;;;;;;;;;;6289107;22;20086;-90
2024/03/30 18:56:14;;;;;;;0.00;0.00;;;14.20;99.90;;;;;;6291226;22;20083;-90
2024/03/30 18:58:49;;;;;;;0.00;0.00;;;14.10;99.90;;;;;;6291962;22;20003;-89
2024/03/30 19:01:20;;;;;;;0.00;0.00;;;;;;;;;;6289269;22;20000;-90
2024/03/30 19:03:55;;;;;;;0.00;0.00;;;;;;;;;;6287457;22;20024;-91
2024/03/30 19:10:02;;;;;;;0.00;0.00;;;14.00;99.90;;;;;;6294079;22;19998;-91
2024/03/30 19:12:28;;;;;;;0.00;0.00;;;;;;;;;;6291910;22;20011;-90
2024/03/30 19:14:57;;;;;;;0.00;0.00;;;;;;;;;;6292276;22;20012;-89
2024/03/30 19:17:23;;;;;;;0.00;0.00;;;;;;;;;;6301260;22;19996;-87
2024/03/30 19:19:49;;;;;;;0.00;0.00;;;;;;;;;;6301794;22;20007;-89
2024/03/30 19:22:15;;;;;;;0.00;0.00;;;;;;;;;;6301446;22;19996;-88
2024/03/30 19:24:41;;;;;;;0.00;0.00;;;;;;;;;;6300083;22;20065;-88
2024/03/30 19:27:07;;;;;;;0.00;0.00;;;;;;;;;;6298941;22;20008;-89
2024/03/30 19:29:33;;;;;;;0.00;0.00;;;;;;;;;;6292488;22;20452;-89
2024/03/30 19:31:59;;;;;;;0.00;0.00;;;;;;;;;;6289343;22;20000;-90
2024/03/30 19:34:25;;;;;;;0.00;0.00;;;;;;;;;;6291280;22;20035;-90
2024/03/30 19:36:55;;;;;;;0.00;0.00;;;;;;;;;;6288400;22;20003;-91
2024/03/30 19:39:21;;;;;;;0.00;0.00;;;;;;;;;;6291470;22;20033;-89
2024/03/30 19:41:48;;;;;;;0.00;0.00;;;13.40;99.90;;;;;;6290980;22;20000;-92
2024/03/30 19:44:14;;;;;;;0.00;0.00;;;;;;;;;;6290049;22;20003;-88
2024/03/30 19:46:41;;;;;;;0.00;0.00;;;;;;;;;;6292194;22;20083;-91
2024/03/30 19:49:07;;;;;;;0.00;0.00;;;;;;;;;;6292346;22;20010;-90
2024/03/30 19:51:32;;;;;;;0.00;0.00;;;;;;;;;;6293201;22;20008;-90
2024/03/30 19:53:58;;;;;;;0.00;0.00;;;;;;;;;;6293165;22;20045;-89
2024/03/30 19:56:24;;;;;;;0.00;0.00;;;;;;;;;;6288255;22;20004;-90
2024/03/30 19:58:51;;;;;;;0.00;0.00;;;;;;;;;;6291155;22;20082;-94
2024/03/30 20:01:19;;;;;;;0.00;0.00;;;13.10;99.90;;;;;;6290405;22;20004;-90
2024/03/30 20:03:45;;;;;;;0.00;0.00;;;;;;;;;;6287243;22;20000;-92
2024/03/30 20:06:11;;;;;;;0.00;0.00;;;;;;;;;;6281681;22;20060;-91
2024/03/30 20:08:38;;;;;;;0.00;0.00;;;;;;;;;;6283336;22;20003;-91
2024/03/30 20:11:04;;;;;;;0.00;0.00;;;12.80;99.90;;;;;;6284581;22;20008;-91
2024/03/30 20:13:30;;;;;;;0.00;0.00;;;;;;;;;;6280756;22;20003;-92
2024/03/30 20:15:57;;;;;;;0.00;0.00;;;12.70;99.90;;;;;;6281743;22;20389;-90
2024/03/30 20:18:23;;;;;;;0.00;0.00;;;;;;;;;;6281738;22;20451;-91
2024/03/30 20:20:53;;;;;;;0.00;0.00;;;;;;;;;;6281618;22;20008;-90
2024/03/30 20:23:20;;;;;;;0.00;0.00;;;12.60;99.90;;;;;;6283307;22;20011;-90
2024/03/30 20:25:46;;;;;;;0.00;0.00;;;12.60;99.90;;;;;;6286872;22;20014;-92
2024/03/30 20:28:12;;;;;;;0.00;0.00;;;;;;;;;;6285321;22;20098;-91
2024/03/30 20:30:38;;;;;;;0.00;0.00;;;;;;;;;;6286915;22;20394;-90
2024/03/30 20:36:31;;;;;;;0.00;0.00;;;;;;;;;;6278038;22;20010;-90
2024/03/30 20:39:09;;;;;;;0.00;0.00;;;;;;;;;;6298143;22;20078;-90
2024/03/30 20:41:36;;;;;;;0.00;0.00;;;;;;;;;;6295282;22;20553;-89
2024/03/30 20:44:02;;;;;;;0.00;0.00;;;;;;;;;;6292655;22;20003;-84
2024/03/30 20:46:28;;;;;;;0.00;0.00;;;;;;;;;;6292107;22;20008;-90
2024/03/30 20:48:54;;;;;;;0.00;0.00;;;;;;;;;;6294574;22;20141;-88
2024/03/30 20:51:20;;;;;;;0.00;0.00;;;;;;;;;;6294576;22;20011;-90
2024/03/30 20:53:46;;;;;;;0.00;0.00;;;;;;;;;;6295144;22;20059;-89
2024/03/30 20:56:14;;;;;;;0.00;0.00;;;;;;;;;;6292515;22;20006;-89
2024/03/30 20:58:40;;;;;;;0.00;0.00;;;;;;;;;;6292755;22;20007;-88
2024/03/30 21:01:06;;;;;;;0.00;0.00;;;;;;;;;;6290824;22;20470;-88
2024/03/30 21:03:33;;;;;;;0.00;0.00;;;;;;;;;;6297615;22;20000;-87
2024/03/30 21:06:07;;;;;;;0.10;0.10;;;12.00;99.90;;;;;;6292066;22;19996;-92
2024/03/30 21:08:33;;;;;;;0.00;0.00;;;;;;;;;;6285443;22;19996;-91
2024/03/30 21:10:59;;;;;;;0.00;0.00;;;;;;;;;;6288693;22;19999;-91
2024/03/30 21:13:25;;;;;;;0.00;0.00;;;;;;;;;;6285818;22;20007;-92
2024/03/30 21:15:51;;;;;;;0.00;0.00;;;;;;;;;;6286055;22;20030;-91
2024/03/30 21:18:20;;;;;;;0.00;0.00;;;;;;;;;;6285397;22;20025;-91
2024/03/30 21:20:46;;;;;;;0.00;0.00;;;12.30;99.90;;;;;;6286562;22;20081;-91
2024/03/30 21:23:13;;;;;;;0.00;0.00;;;;;;;;;;6284984;22;20007;-92
2024/03/30 21:25:39;;;;;;;0.00;0.00;;;;;;;;;;6281414;22;20007;-91
2024/03/30 21:28:04;;;;;;;0.00;0.00;;;;;;;;;;6287620;22;19996;-90
2024/03/30 21:30:30;;;;;;;0.00;0.00;;;;;;;;;;6288156;22;20002;-91
2024/03/30 21:32:56;;;;;;;0.00;0.00;;;;;;;;;;6284026;22;20007;-90
2024/03/30 21:35:22;;;;;;;0.00;0.00;;;;;;;;;;6282046;22;20023;-89
2024/03/30 21:37:49;;;;;;;0.00;0.00;;;;;;;;;;6281873;22;20516;-90
2024/03/30 21:40:15;;;;;;;0.00;0.00;;;;;;;;;;6283889;22;20062;-90
2024/03/30 21:42:41;;;;;;;0.00;0.00;;;;;;;;;;6284163;22;20000;-90
2024/03/30 21:45:06;;;;;;;0.00;0.00;;;11.70;99.90;;;;;;6285091;22;20134;-90
2024/03/30 21:47:32;;;;;;;0.00;0.00;;;;;;;;;;6284332;22;20049;-92
2024/03/30 21:49:58;;;;;;;0.00;0.00;;;;;;;;;;6284644;22;20078;-91
2024/03/30 21:52:24;;;;;;;0.00;0.00;;;11.50;99.90;;;;;;6284992;22;20031;-91
2024/03/30 21:54:50;;;;;;;0.00;0.00;;;;;;;;;;6285229;22;20518;-92
2024/03/30 21:57:16;;;;;;;0.00;0.00;;;;;;;;;;6285049;22;19999;-91
2024/03/30 21:59:45;;;;;;;0.00;0.00;;;11.40;99.90;;;;;;6284830;22;20036;-90
2024/03/30 22:02:11;;;;;;;0.00;0.00;;;;;;;;;;6285351;22;20007;-91
2024/03/30 22:04:38;;;;;;;0.00;0.00;;;;;;;;;;6285878;22;20036;-92
2024/03/30 22:07:04;;;;;;;0.00;0.00;;;;;;;;;;6285923;22;20293;-91
2024/03/30 22:09:30;;;;;;;0.00;0.00;;;;;;;;;;6285334;22;20007;-91
2024/03/30 22:11:55;;;;;;;0.00;0.00;;;;;;;;;;6286053;22;20007;-91
2024/03/30 22:14:24;;;;;;;0.00;0.00;;;11.10;99.90;;;;;;6285212;22;20026;-89
2024/03/30 22:16:50;;;;;;;0.00;0.00;;;;;;;;;;6285490;22;20004;-94
2024/03/30 22:19:16;;;;;;;0.00;0.00;;;;;;;;;;6285267;22;20067;-91
2024/03/30 22:21:42;;;;;;;0.00;0.00;;;;;;;;;;6284427;22;20031;-92
2024/03/30 22:24:10;;;;;;;0.00;0.00;;;10.90;99.90;;;;;;6284649;22;20004;-92
2024/03/30 22:26:36;;;;;;;0.00;0.00;;;;;;;;;;6283798;22;20443;-92
2024/03/30 22:29:02;;;;;;;0.00;0.00;;;;;;;;;;6284481;22;20014;-90
2024/03/30 22:31:28;;;;;;;0.00;0.00;;;;;;;;;;6283725;22;20012;-90
2024/03/30 22:33:54;;;;;;;0.00;0.00;;;10.90;99.90;;;;;;6284304;22;20037;-91
2024/03/30 22:36:20;;;;;;;0.00;0.00;;;;;;;;;;6283919;22;20012;-91
2024/03/30 22:38:55;;;;;;;0.00;0.00;;;11.00;99.90;;;;;;6284177;22;20030;-92
2024/03/30 22:41:22;;;;;;;0.00;0.00;;;10.90;99.90;;;;;;6283304;22;20011;-90
2024/03/30 22:43:50;;;;;;;0.00;0.00;;;;;;;;;;6282907;22;20008;-90
2024/03/30 22:46:16;;;;;;;0.00;0.00;;;;;;;;;;6282666;22;20003;-92
2024/03/30 22:48:41;;;;;;;0.05;0.05;;;;;;;;;;6284090;22;20332;-91
2024/03/30 22:51:07;;;;;;;0.00;0.00;;;;;;;;;;6284015;22;20002;-91
2024/03/30 22:53:33;;;;;;;0.00;0.00;;;;;;;;;;6282893;22;20058;-91
2024/03/30 22:56:00;;;;;;;0.00;0.00;;;10.80;99.90;;;;;;6283110;22;19995;-92
2024/03/30 22:58:27;;;;;;;0.00;0.00;;;10.70;99.90;;;;;;6283907;22;20027;-90
2024/03/30 23:00:53;;;;;;;0.00;0.00;;;;;;;;;;6282731;22;20007;-90
2024/03/30 23:03:27;;;;;;;0.00;0.00;;;10.60;99.90;;;;;;6282119;22;19999;-91
2024/03/30 23:06:10;;;;;;;0.00;0.00;;;10.80;99.90;;;;;;6280632;22;20008;-90
2024/03/30 23:08:36;;;;;;;0.00;0.00;;;;;;;;;;6282593;22;20451;-91
2024/03/30 23:11:02;;;;;;;0.00;0.00;;;;;;;;;;6283970;22;20075;-92
2024/03/30 23:13:29;;;;;;;0.00;0.00;;;10.20;99.90;;;;;;6283496;22;20007;-93
2024/03/30 23:15:55;;;;;;;0.00;0.00;;;10.40;99.90;;;;;;6279895;22;20083;-92
2024/03/30 23:18:21;;;;;;;0.00;0.00;;;;;;;;;;6282476;22;20007;-90
2024/03/30 23:20:48;;;;;;;0.00;0.00;;;10.30;99.90;;;;;;6282891;22;20003;-91
2024/03/30 23:23:15;;;;;;;0.00;0.00;;;;;;;;;;6283648;22;20003;-89
2024/03/30 23:25:44;;;;;;;0.00;0.00;;;10.20;99.90;;;;;;6281089;22;20255;-89
2024/03/30 23:28:14;;;;;;;0.03;0.03;;;10.20;99.90;;;;;;6283556;22;20000;-91
2024/03/30 23:30:40;;;;;;;0.00;0.00;;;;;;;;;;6283234;22;20033;-90
2024/03/30 23:33:07;;;;;;;0.00;0.00;;;10.20;99.90;;;;;;6283566;22;20043;-92
2024/03/30 23:35:35;;;;;;;0.03;0.03;;;10.20;99.90;;;;;;6282565;22;20003;-92
2024/03/30 23:38:01;;;;;;;0.00;0.00;;;;;;;;;;6282821;22;20008;-92
2024/03/30 23:40:27;;;;;;;0.00;0.00;;;;;;;;;;6282201;22;20004;-90
2024/03/30 23:42:53;;;;;;;0.00;0.00;;;;;;;;;;6283838;22;20087;-91
2024/03/30 23:45:19;;;;;;;0.00;0.00;;;;;;;;;;6281535;22;20007;-91
2024/03/30 23:47:47;;;;;;;0.00;0.00;;;10.00;99.90;;;;;;6283973;22;20006;-91
2024/03/30 23:50:13;;;;;;;0.00;0.00;;;;;;;;;;6282589;22;20019;-91
2024/03/30 23:52:40;;;;;;;0.00;0.00;;;;;;;;;;6283112;22;20003;-90
2024/03/30 23:55:06;;;;;;;0.05;0.05;;;;;;;;;;6284095;22;20069;-91
2024/03/30 23:57:32;;;;;;;0.00;0.00;;;;;;;;;;6283325;22;20042;-91
2024/03/30 23:59:59;;;;;;;0.00;0.00;;;;;;;;;;6282530;22;20077;-92
